Zito Soares, Brazil
Current Conditions -  °F | °C
As of 4:00 AM on Tuesday 27 Jan 2015 (Local Time) from SBCF Reporting Station
Moderate Fog Moderate Fog  
Wind Chill: 66°   Ceiling: 100
Heat Index: 66°   Visibility: 0.5mi
Dew Point: 64°   Wind: 6mph
Humidity: 94%   Direction: 160°SSE
Pressure: 30.06"   Gusts: NA
Location:  20.18°S, 42.76°W
Report Text: SBCF 270600Z 16005KT 0800 FG BKN001 SCT035 19/18 Q1018
Loading
Personal Weather Stations






























Interactive Weather Map New forecast layout! Learn more

10-Day Weather Forecast

Advertisements
Track Severe Weather on mobile